Time;durP1;ratioP1;P1;durP2;ratioP2;P2;SDS_P1;SDS_P2;PMS_P1;PMS_P2;Temp;Humidity;BMP_temperature;BMP_pressure;BME280_temperature;BME280_humidity;BME280_pressure;Samples;Min_cycle;Max_cycle;Signal;HPM_P1;HPM_P2
2022/08/28 00:01:15;;;;;;;4.40;4.03;;;19.70;99.90;;;;;;5032225;28;20240;-64
2022/08/28 00:03:41;;;;;;;4.33;4.03;;;19.70;99.90;;;;;;5031556;28;20203;-65
2022/08/28 00:06:07;;;;;;;5.90;4.00;;;19.80;99.90;;;;;;5032320;28;20171;-64
2022/08/28 00:08:33;;;;;;;4.77;3.90;;;19.70;99.90;;;;;;5031840;28;20224;-64
2022/08/28 00:10:59;;;;;;;6.57;3.60;;;19.80;99.90;;;;;;5031706;28;20171;-64
2022/08/28 00:13:25;;;;;;;7.00;3.77;;;19.70;99.90;;;;;;5031672;28;20176;-64
2022/08/28 00:15:55;;;;;;;4.67;3.40;;;19.70;99.90;;;;;;5031722;28;20179;-64
2022/08/28 00:18:21;;;;;;;8.53;3.80;;;19.70;99.90;;;;;;5031933;28;20175;-64
2022/08/28 00:20:47;;;;;;;6.57;3.53;;;19.60;99.90;;;;;;5031653;28;20723;-65
2022/08/28 00:23:13;;;;;;;3.80;3.57;;;19.50;99.90;;;;;;5031835;28;20257;-64
2022/08/28 00:25:39;;;;;;;4.17;3.57;;;19.60;99.90;;;;;;5031332;28;20175;-64
2022/08/28 00:28:07;;;;;;;4.87;3.90;;;19.50;99.90;;;;;;5031672;28;20218;-64
2022/08/28 00:30:40;;;;;;;4.37;4.00;;;19.50;99.90;;;;;;5031632;28;20663;-65
2022/08/28 00:33:08;;;;;;;5.00;3.83;;;19.50;99.90;;;;;;5031545;28;20250;-64
2022/08/28 00:35:34;;;;;;;5.20;3.90;;;19.50;99.90;;;;;;5031295;28;20245;-65
2022/08/28 00:37:59;;;;;;;4.20;3.70;;;19.40;99.90;;;;;;5031182;28;20176;-64
2022/08/28 00:40:27;;;;;;;6.80;3.80;;;19.40;99.90;;;;;;5031454;28;20570;-64
2022/08/28 00:42:54;;;;;;;4.57;4.03;;;19.40;99.90;;;;;;5031062;28;20202;-63
2022/08/28 00:45:20;;;;;;;4.73;4.13;;;19.30;99.90;;;;;;5030897;28;20710;-64
2022/08/28 00:47:46;;;;;;;4.17;3.87;;;19.30;99.90;;;;;;5030727;28;20194;-63
2022/08/28 00:50:18;;;;;;;5.43;4.17;;;19.30;99.90;;;;;;5031185;28;20203;-64
2022/08/28 00:52:49;;;;;;;5.00;3.60;;;19.30;99.90;;;;;;5031196;28;20198;-64
2022/08/28 00:55:19;;;;;;;4.13;3.80;;;19.30;99.90;;;;;;5031009;28;20262;-63
2022/08/28 00:57:49;;;;;;;4.57;3.93;;;19.20;99.90;;;;;;5031109;28;20183;-64
2022/08/28 01:00:19;;;;;;;3.83;3.50;;;19.20;99.90;;;;;;5031379;28;20269;-64
2022/08/28 01:02:45;;;;;;;3.93;3.47;;;19.30;99.90;;;;;;5031152;28;20203;-65
2022/08/28 01:05:14;;;;;;;5.33;4.20;;;19.30;99.90;;;;;;5031027;28;20179;-63
2022/08/28 01:07:40;;;;;;;4.97;3.80;;;19.30;99.90;;;;;;5031127;28;20179;-64
2022/08/28 01:10:14;;;;;;;4.90;3.90;;;19.20;99.90;;;;;;5031229;28;20195;-64
2022/08/28 01:12:40;;;;;;;6.87;4.37;;;19.20;99.90;;;;;;5030965;28;20718;-64
2022/08/28 01:15:10;;;;;;;4.83;3.70;;;19.10;99.90;;;;;;5030822;28;20179;-64
2022/08/28 01:17:40;;;;;;;6.63;4.10;;;19.10;99.90;;;;;;5031293;28;20191;-64
2022/08/28 01:20:12;;;;;;;5.07;4.03;;;19.10;99.90;;;;;;5031112;28;20206;-63
2022/08/28 01:22:44;;;;;;;7.87;3.40;;;19.00;99.90;;;;;;5031301;28;20503;-64
2022/08/28 01:25:17;;;;;;;4.37;3.60;;;19.00;99.90;;;;;;5030802;28;20171;-63
2022/08/28 01:27:43;;;;;;;3.90;3.50;;;19.00;99.90;;;;;;5030975;28;20183;-64
2022/08/28 01:30:11;;;;;;;7.87;4.43;;;19.00;99.90;;;;;;5031295;28;20664;-65
2022/08/28 01:32:46;;;;;;;4.80;4.07;;;19.00;99.90;;;;;;5030837;28;20210;-65
2022/08/28 01:35:19;;;;;;;6.83;4.33;;;19.00;99.90;;;;;;5030728;28;20644;-64
2022/08/28 01:37:44;;;;;;;7.30;3.90;;;18.90;99.90;;;;;;5031036;28;20220;-64
2022/08/28 01:40:12;;;;;;;4.03;3.73;;;18.90;99.90;;;;;;5030742;28;20203;-65
2022/08/28 01:42:42;;;;;;;5.37;4.93;;;18.80;99.90;;;;;;5030949;28;20696;-65
2022/08/28 01:45:13;;;;;;;4.90;4.50;;;18.80;99.90;;;;;;5030392;28;20210;-64
2022/08/28 01:47:41;;;;;;;5.33;4.00;;;18.80;99.90;;;;;;5031092;28;20172;-64
2022/08/28 01:50:08;;;;;;;6.70;4.80;;;18.80;99.90;;;;;;5030513;28;20207;-63
2022/08/28 01:52:35;;;;;;;6.50;3.73;;;18.70;99.90;;;;;;5030951;28;20179;-63
2022/08/28 01:55:01;;;;;;;4.70;4.23;;;18.70;99.90;;;;;;5030336;28;20271;-64
2022/08/28 01:57:27;;;;;;;9.87;4.10;;;18.60;99.90;;;;;;5013968;28;20187;-64
2022/08/28 01:59:53;;;;;;;4.50;4.10;;;18.60;99.90;;;;;;5034152;28;20238;-63
2022/08/28 02:02:19;;;;;;;7.17;4.30;;;18.60;99.90;;;;;;5034302;28;20183;-64
2022/08/28 02:04:45;;;;;;;8.23;4.30;;;18.60;99.90;;;;;;5033964;28;20203;-64
2022/08/28 02:07:11;;;;;;;4.83;3.87;;;18.60;99.90;;;;;;5034586;28;20210;-65
2022/08/28 02:09:36;;;;;;;8.97;5.67;;;18.50;99.90;;;;;;5034099;28;20199;-63
2022/08/28 02:12:02;;;;;;;9.20;7.33;;;18.50;99.90;;;;;;5034492;28;20210;-64
2022/08/28 02:14:28;;;;;;;5.17;4.70;;;18.50;99.90;;;;;;5033739;28;20188;-65
2022/08/28 02:16:55;;;;;;;7.07;5.10;;;18.50;99.90;;;;;;5034017;28;20193;-63
2022/08/28 02:19:21;;;;;;;5.10;4.60;;;18.40;99.90;;;;;;5034005;28;20199;-63
2022/08/28 02:21:47;;;;;;;7.73;5.10;;;18.40;99.90;;;;;;5033863;28;20186;-63
2022/08/28 02:24:13;;;;;;;6.33;4.60;;;18.40;99.90;;;;;;5013903;28;20269;-63
2022/08/28 02:26:38;;;;;;;5.40;4.93;;;18.40;99.90;;;;;;5016361;28;20176;-63
2022/08/28 02:29:04;;;;;;;5.33;4.13;;;18.30;99.90;;;;;;5033617;28;20222;-63
2022/08/28 02:31:30;;;;;;;6.03;4.30;;;18.20;99.90;;;;;;5033660;28;20178;-65
2022/08/28 02:33:55;;;;;;;6.17;4.43;;;18.20;99.90;;;;;;5033644;28;20542;-64
2022/08/28 02:36:22;;;;;;;8.47;5.10;;;18.20;99.90;;;;;;5034098;28;20260;-64
2022/08/28 02:38:49;;;;;;;6.00;4.27;;;18.20;99.90;;;;;;5033263;28;20242;-65
2022/08/28 02:41:15;;;;;;;4.67;4.27;;;18.20;99.90;;;;;;5033575;28;20175;-64
2022/08/28 02:43:41;;;;;;;5.33;4.20;;;18.20;99.90;;;;;;5033219;28;20207;-63
2022/08/28 02:46:07;;;;;;;11.77;5.07;;;18.20;99.90;;;;;;5033604;28;20653;-63
2022/08/28 02:48:35;;;;;;;9.07;4.50;;;18.10;99.90;;;;;;5033405;28;20254;-64
2022/08/28 02:51:04;;;;;;;12.67;4.90;;;18.10;99.90;;;;;;5033335;28;20183;-64
2022/08/28 02:53:31;;;;;;;8.50;5.43;;;18.10;99.90;;;;;;5033087;28;20253;-63
2022/08/28 02:55:59;;;;;;;6.73;4.90;;;18.10;99.90;;;;;;5033121;28;20183;-65
2022/08/28 02:58:26;;;;;;;7.77;4.63;;;18.00;99.90;;;;;;5033446;28;20249;-65
2022/08/28 03:00:52;;;;;;;5.60;5.10;;;18.00;99.90;;;;;;5032961;28;20179;-64
2022/08/28 03:03:19;;;;;;;6.70;4.20;;;18.00;99.90;;;;;;5033208;28;20207;-64
2022/08/28 03:05:45;;;;;;;5.17;4.70;;;18.00;99.90;;;;;;5032862;28;20661;-64
2022/08/28 03:08:10;;;;;;;7.40;5.17;;;18.00;99.90;;;;;;5033259;28;20176;-65
2022/08/28 03:10:36;;;;;;;9.77;4.90;;;17.90;99.90;;;;;;5032249;28;20617;-63
2022/08/28 03:13:02;;;;;;;5.80;5.30;;;17.90;99.90;;;;;;5033087;28;20203;-64
2022/08/28 03:15:27;;;;;;;7.90;5.30;;;17.80;99.90;;;;;;5032554;28;20190;-64
2022/08/28 03:17:53;;;;;;;8.73;5.30;;;17.80;99.90;;;;;;5033010;28;20174;-63
2022/08/28 03:20:19;;;;;;;9.17;5.30;;;17.80;99.90;;;;;;5032770;28;20199;-63
2022/08/28 03:25:29;;;;;;;7.80;7.10;;;17.60;99.90;;;;;;5032448;28;20217;-63
2022/08/28 03:27:55;;;;;;;9.37;8.33;;;17.50;99.90;;;;;;5032783;28;20195;-63
2022/08/28 03:30:21;;;;;;;7.57;6.67;;;17.30;99.90;;;;;;5032615;28;20188;-64
2022/08/28 03:32:47;;;;;;;8.40;6.17;;;17.20;99.90;;;;;;5032753;28;20549;-63
2022/08/28 03:35:13;;;;;;;8.43;5.93;;;17.10;99.90;;;;;;5031951;28;20175;-64
2022/08/28 03:37:39;;;;;;;6.17;5.63;;;16.90;99.90;;;;;;5032719;28;20167;-63
2022/08/28 03:40:06;;;;;;;12.20;6.83;;;16.80;99.90;;;;;;5032288;28;20282;-63
2022/08/28 03:42:32;;;;;;;11.80;6.47;;;16.70;99.90;;;;;;5032495;28;20199;-64
2022/08/28 03:44:57;;;;;;;13.93;6.53;;;16.60;99.90;;;;;;5032120;28;20167;-64
2022/08/28 03:47:23;;;;;;;8.30;5.60;;;16.50;99.90;;;;;;5032414;28;20183;-63
2022/08/28 03:49:55;;;;;;;9.03;5.77;;;16.50;99.90;;;;;;5032145;28;20691;-63
2022/08/28 03:52:20;;;;;;;8.33;6.23;;;16.40;99.90;;;;;;5032441;28;20575;-63
2022/08/28 03:54:46;;;;;;;10.97;6.70;;;16.40;99.90;;;;;;5032068;28;20194;-63
2022/08/28 03:57:17;;;;;;;8.83;7.83;;;16.20;99.90;;;;;;5032339;28;20183;-65
2022/08/28 03:59:43;;;;;;;11.73;6.67;;;16.10;99.90;;;;;;5032082;28;20588;-63
2022/08/28 04:02:09;;;;;;;11.73;6.50;;;16.10;99.90;;;;;;5032135;28;20168;-64
2022/08/28 04:04:34;;;;;;;6.67;6.00;;;16.00;99.90;;;;;;5031763;28;20179;-63
2022/08/28 04:07:00;;;;;;;12.50;8.00;;;16.00;99.90;;;;;;5032031;28;20175;-63
2022/08/28 04:09:25;;;;;;;10.23;6.67;;;15.90;99.90;;;;;;5031817;28;20199;-63
2022/08/28 04:11:52;;;;;;;8.30;6.80;;;15.90;99.90;;;;;;5032194;28;20223;-64
2022/08/28 04:14:17;;;;;;;8.43;6.47;;;15.80;99.90;;;;;;5031541;28;20171;-63
2022/08/28 04:16:43;;;;;;;10.93;7.03;;;15.80;99.90;;;;;;5032094;28;20171;-63
2022/08/28 04:19:09;;;;;;;6.73;6.03;;;15.80;99.90;;;;;;5031780;28;20687;-63
2022/08/28 04:21:34;;;;;;;8.07;6.57;;;15.80;99.90;;;;;;5031917;28;20222;-63
2022/08/28 04:24:00;;;;;;;10.73;6.33;;;15.80;99.90;;;;;;5031122;28;20211;-64
2022/08/28 04:26:26;;;;;;;9.53;6.10;;;15.80;99.90;;;;;;5031943;28;20637;-64
2022/08/28 04:28:53;;;;;;;8.43;6.60;;;15.80;99.90;;;;;;5031658;28;20238;-64
2022/08/28 04:31:19;;;;;;;11.73;7.20;;;15.80;99.90;;;;;;5031947;28;20167;-63
2022/08/28 04:33:45;;;;;;;9.23;6.67;;;15.80;99.90;;;;;;5031313;28;20186;-64
2022/08/28 04:36:14;;;;;;;10.33;7.40;;;15.80;99.90;;;;;;5031691;28;20176;-63
2022/08/28 04:38:41;;;;;;;11.37;8.53;;;15.70;99.90;;;;;;5031348;28;20545;-63
2022/08/28 04:41:08;;;;;;;8.37;6.90;;;15.80;99.90;;;;;;5031567;28;20175;-62
2022/08/28 04:43:35;;;;;;;10.43;6.90;;;15.70;99.90;;;;;;5030941;28;20204;-64
2022/08/28 04:46:10;;;;;;;10.60;7.77;;;15.80;99.90;;;;;;5031517;28;20171;-62
2022/08/28 04:48:36;;;;;;;6.90;6.27;;;15.80;99.90;;;;;;5031328;28;20691;-64
2022/08/28 04:51:04;;;;;;;9.67;7.23;;;15.90;99.90;;;;;;5031752;28;20562;-62
2022/08/28 04:53:30;;;;;;;9.93;8.00;;;15.90;99.90;;;;;;5030886;28;20180;-64
2022/08/28 04:55:57;;;;;;;8.13;7.43;;;15.90;99.90;;;;;;5031389;28;20174;-64
2022/08/28 04:58:26;;;;;;;7.77;5.97;;;15.90;99.90;;;;;;5031226;28;20187;-66
2022/08/28 05:00:53;;;;;;;8.90;7.30;;;15.90;99.90;;;;;;5031441;28;20171;-66
2022/08/28 05:03:19;;;;;;;7.67;6.07;;;16.00;99.90;;;;;;5031001;28;20206;-64
2022/08/28 05:05:47;;;;;;;7.97;6.07;;;16.00;99.90;;;;;;5031295;28;20529;-66
2022/08/28 05:08:15;;;;;;;9.20;6.20;;;16.00;99.90;;;;;;5031040;28;20167;-65
2022/08/28 05:10:41;;;;;;;7.43;5.90;;;16.10;99.90;;;;;;5031492;28;20172;-65
2022/08/28 05:13:08;;;;;;;7.90;5.77;;;16.10;99.90;;;;;;5030323;28;20551;-65
2022/08/28 05:15:38;;;;;;;10.07;6.57;;;16.20;99.90;;;;;;5030784;28;20665;-63
2022/08/28 05:18:05;;;;;;;9.10;6.80;;;16.30;99.90;;;;;;5031147;28;20179;-64
2022/08/28 05:20:35;;;;;;;11.33;8.00;;;16.40;99.90;;;;;;5030764;28;20183;-64
2022/08/28 05:23:01;;;;;;;12.47;8.53;;;16.40;99.90;;;;;;5031425;28;20593;-65
2022/08/28 05:25:27;;;;;;;8.20;6.70;;;16.50;99.90;;;;;;5030634;28;20175;-65
2022/08/28 05:27:52;;;;;;;8.03;6.73;;;16.50;99.90;;;;;;5031193;28;20214;-64
2022/08/28 05:30:18;;;;;;;10.33;7.97;;;16.50;99.90;;;;;;5031012;28;20202;-67
2022/08/28 05:32:43;;;;;;;11.73;7.17;;;16.60;99.90;;;;;;5032717;28;20586;-65
2022/08/28 05:35:09;;;;;;;9.07;6.10;;;16.70;99.90;;;;;;5034577;28;20180;-65
2022/08/28 05:37:34;;;;;;;7.53;5.90;;;16.70;99.90;;;;;;5034958;28;20187;-65
2022/08/28 05:40:00;;;;;;;8.80;8.10;;;16.80;99.90;;;;;;5034439;28;20195;-65
2022/08/28 05:42:26;;;;;;;12.20;10.63;;;16.90;99.90;;;;;;5034868;28;20180;-65
2022/08/28 05:44:51;;;;;;;16.17;9.30;;;17.00;99.90;;;;;;5034205;28;20649;-65
2022/08/28 05:47:17;;;;;;;13.90;12.80;;;17.00;99.90;;;;;;5034737;28;20254;-63
2022/08/28 05:49:43;;;;;;;12.20;10.63;;;17.10;99.90;;;;;;5034616;28;20195;-65
2022/08/28 05:52:09;;;;;;;13.27;11.70;;;17.10;99.90;;;;;;5034605;28;20541;-65
2022/08/28 05:54:34;;;;;;;12.27;8.60;;;17.20;99.90;;;;;;5033866;28;20187;-66
2022/08/28 05:57:00;;;;;;;9.67;8.77;;;17.20;99.90;;;;;;5034597;28;20369;-66
2022/08/28 05:59:25;;;;;;;9.83;6.77;;;17.30;99.90;;;;;;5034604;28;20215;-65
2022/08/28 06:01:51;;;;;;;9.40;8.13;;;17.40;99.90;;;;;;5034867;28;20645;-64
2022/08/28 06:04:24;;;;;;;9.63;6.40;;;17.40;99.90;;;;;;5032071;28;20219;-66
2022/08/28 06:06:50;;;;;;;8.30;7.60;;;17.50;99.90;;;;;;5034170;28;20182;-65
2022/08/28 06:09:23;;;;;;;7.43;5.27;;;17.60;99.90;;;;;;5034446;28;20192;-65
2022/08/28 06:11:49;;;;;;;7.37;6.60;;;17.70;99.90;;;;;;5034484;28;20179;-66
2022/08/28 06:14:19;;;;;;;8.33;4.97;;;17.80;99.90;;;;;;5034521;28;20176;-65
2022/08/28 06:16:47;;;;;;;8.13;5.10;;;17.90;99.90;;;;;;5034675;28;20190;-65
2022/08/28 06:19:13;;;;;;;10.33;5.53;;;18.00;99.90;;;;;;5034813;28;20195;-66
2022/08/28 06:21:40;;;;;;;8.43;4.80;;;18.00;99.90;;;;;;5034594;28;20186;-65
2022/08/28 06:24:06;;;;;;;6.47;5.30;;;18.00;99.90;;;;;;5034072;28;20586;-66
2022/08/28 06:26:32;;;;;;;8.33;5.57;;;18.10;99.90;;;;;;5034677;28;20226;-65
2022/08/28 06:29:00;;;;;;;8.00;5.07;;;18.20;99.90;;;;;;5037807;28;20593;-64
2022/08/28 06:31:26;;;;;;;8.80;5.43;;;18.30;99.90;;;;;;5016274;28;20662;-66
2022/08/28 06:33:56;;;;;;;9.90;4.63;;;18.50;99.90;;;;;;5033407;28;20272;-66
2022/08/28 06:36:23;;;;;;;7.00;4.77;;;18.50;99.90;;;;;;5033916;28;20538;-63
2022/08/28 06:38:49;;;;;;;12.63;5.27;;;18.60;99.90;;;;;;5033374;28;20195;-64
2022/08/28 06:41:15;;;;;;;7.87;5.33;;;18.60;99.90;;;;;;5033624;28;20168;-63
2022/08/28 06:43:41;;;;;;;9.03;4.50;;;18.50;99.90;;;;;;5031988;28;20207;-63
2022/08/28 06:46:07;;;;;;;5.63;5.10;;;18.60;99.90;;;;;;5033213;28;20234;-63
2022/08/28 06:48:33;;;;;;;8.07;4.67;;;18.50;99.90;;;;;;5033119;28;20290;-65
2022/08/28 06:50:59;;;;;;;9.63;5.10;;;18.50;99.90;;;;;;5033258;28;20254;-65
2022/08/28 06:53:29;;;;;;;10.53;4.97;;;18.50;99.90;;;;;;5031913;28;20176;-65
2022/08/28 06:56:12;;;;;;;6.97;4.67;;;18.50;99.90;;;;;;5032985;28;20182;-65
2022/08/28 06:58:41;;;;;;;6.57;4.73;;;18.60;99.90;;;;;;5032600;28;20230;-64
2022/08/28 07:01:13;;;;;;;7.97;4.63;;;18.60;99.90;;;;;;5033148;28;20183;-65
2022/08/28 07:03:39;;;;;;;9.60;4.13;;;18.80;99.90;;;;;;5032524;28;20211;-65
2022/08/28 07:06:07;;;;;;;6.50;4.50;;;18.90;99.90;;;;;;5033021;28;20180;-65
2022/08/28 07:08:34;;;;;;;8.87;5.07;;;19.00;99.90;;;;;;5032875;28;20682;-64
2022/08/28 07:11:19;;;;;;;7.33;5.27;;;19.10;99.90;;;;;;5032930;28;20559;-64
2022/08/28 07:13:45;;;;;;;7.00;4.13;;;19.00;99.90;;;;;;5032522;28;20183;-65
2022/08/28 07:16:12;;;;;;;7.53;4.43;;;18.90;99.90;;;;;;5032849;28;20187;-64
2022/08/28 07:18:39;;;;;;;6.53;4.20;;;18.90;99.90;;;;;;5032690;28;20661;-65
2022/08/28 07:21:04;;;;;;;9.07;4.00;;;18.80;99.90;;;;;;5032811;28;20217;-65
2022/08/28 07:23:32;;;;;;;8.00;4.17;;;19.00;99.90;;;;;;5032138;28;20282;-65
2022/08/28 07:25:59;;;;;;;8.60;4.37;;;19.10;99.90;;;;;;5032765;28;20182;-64
2022/08/28 07:28:25;;;;;;;6.97;4.40;;;19.20;99.90;;;;;;5032738;28;20195;-64
2022/08/28 07:31:05;;;;;;;5.77;4.30;;;19.40;99.90;;;;;;5031971;28;20210;-63
2022/08/28 07:33:32;;;;;;;6.20;4.53;;;19.40;99.90;;;;;;5031979;28;20180;-64
2022/08/28 07:35:59;;;;;;;8.47;4.33;;;19.50;99.90;;;;;;5032405;28;20263;-66
2022/08/28 07:38:25;;;;;;;9.83;4.60;;;19.70;99.90;;;;;;5032313;28;20231;-64
2022/08/28 07:40:52;;;;;;;8.57;5.30;;;20.00;99.90;;;;;;5032611;28;20222;-63
2022/08/28 07:46:10;;;;;;;9.40;5.53;;;20.20;99.90;;;;;;5032532;28;20182;-64
2022/08/28 07:48:37;;;;;;;11.87;5.60;;;20.20;99.90;;;;;;5031919;28;20445;-64
2022/08/28 07:51:05;;;;;;;6.43;5.30;;;20.30;99.90;;;;;;5032131;28;20190;-64
2022/08/28 07:53:31;;;;;;;4.53;4.07;;;20.30;99.90;;;;;;5021109;28;20207;-65
2022/08/28 07:55:57;;;;;;;7.47;4.97;;;20.40;99.90;;;;;;5012885;28;20642;-64
2022/08/28 07:58:24;;;;;;;6.97;5.83;;;20.60;99.90;;;;;;5032215;28;20191;-65
2022/08/28 08:00:51;;;;;;;7.10;6.10;;;20.80;99.90;;;;;;5032127;28;20263;-64
2022/08/28 08:03:16;;;;;;;6.88;6.20;;;21.00;99.90;;;;;;5031649;28;20746;-64
2022/08/28 08:05:54;;;;;;;8.23;5.20;;;21.10;99.90;;;;;;5031813;28;20180;-64
2022/08/28 08:08:20;;;;;;;6.70;6.13;;;21.10;99.90;;;;;;5031977;28;20181;-64
2022/08/28 08:10:58;;;;;;;8.03;7.33;;;21.10;99.90;;;;;;5032043;28;20180;-64
2022/08/28 08:13:24;;;;;;;8.40;5.07;;;21.20;99.90;;;;;;5031469;28;20205;-65
2022/08/28 08:15:50;;;;;;;8.73;5.47;;;21.30;99.90;;;;;;5031762;28;20183;-64
2022/08/28 08:18:16;;;;;;;11.97;4.70;;;21.50;99.90;;;;;;5031782;28;20270;-65
2022/08/28 08:20:42;;;;;;;11.17;5.07;;;21.50;99.90;;;;;;5031863;28;20180;-65
2022/08/28 08:23:07;;;;;;;7.23;4.33;;;21.60;99.90;;;;;;5031013;28;20668;-64
2022/08/28 08:25:33;;;;;;;6.80;3.93;;;21.70;99.90;;;;;;5029422;28;20187;-63
2022/08/28 08:27:59;;;;;;;6.80;3.63;;;21.70;99.90;;;;;;5031557;28;20179;-64
2022/08/28 08:30:24;;;;;;;12.13;4.00;;;21.50;99.90;;;;;;5030156;28;20274;-64
2022/08/28 08:32:50;;;;;;;12.35;4.32;;;21.60;99.90;;;;;;5031342;28;20211;-64
2022/08/28 08:35:16;;;;;;;4.95;4.50;;;21.50;99.90;;;;;;5031166;28;20724;-64
2022/08/28 08:37:41;;;;;;;5.72;4.68;;;21.50;99.90;;;;;;5031311;28;20179;-65
2022/08/28 08:40:10;;;;;;;5.00;3.83;;;21.70;99.90;;;;;;5013632;28;20290;-65
2022/08/28 08:42:37;;;;;;;4.90;3.88;;;21.70;99.90;;;;;;5031044;28;20211;-64
2022/08/28 08:45:04;;;;;;;4.80;3.85;;;22.10;99.90;;;;;;5031041;28;20254;-63
2022/08/28 08:47:46;;;;;;;6.78;3.97;;;22.30;99.90;;;;;;5030965;28;20254;-66
2022/08/28 08:50:16;;;;;;;4.90;4.22;;;22.30;99.90;;;;;;5031225;28;20647;-64
2022/08/28 08:52:55;;;;;;;6.95;4.15;;;22.60;99.90;;;;;;5031208;28;20201;-65
2022/08/28 08:55:24;;;;;;;6.63;3.85;;;22.90;99.90;;;;;;5031169;28;20171;-67
2022/08/28 08:58:10;;;;;;;5.75;4.57;;;23.30;99.90;;;;;;5030973;28;20679;-67
2022/08/28 09:00:45;;;;;;;7.85;3.67;;;24.00;99.90;;;;;;5031529;28;20575;-66
2022/08/28 09:03:21;;;;;;;8.18;4.18;;;24.70;99.90;;;;;;5030954;28;20206;-67
2022/08/28 09:05:53;;;;;;;5.40;4.15;;;24.60;99.90;;;;;;5031078;28;20745;-67
2022/08/28 09:08:30;;;;;;;4.85;3.65;;;24.70;99.90;;;;;;5033508;28;20534;-67
2022/08/28 09:11:20;;;;;;;6.60;3.47;;;25.10;99.90;;;;;;5035333;28;20218;-66
2022/08/28 09:14:07;;;;;;;4.60;3.38;;;25.50;99.90;;;;;;5034662;28;20214;-67
2022/08/28 09:16:37;;;;;;;5.30;3.63;;;25.40;99.90;;;;;;5035475;28;20241;-66
2022/08/28 09:19:05;;;;;;;5.00;4.50;;;25.40;99.90;;;;;;5034864;28;20234;-65
2022/08/28 09:21:37;;;;;;;6.95;4.95;;;25.20;99.90;;;;;;5034916;28;20194;-66
2022/08/28 09:24:10;;;;;;;4.35;3.88;;;25.10;99.90;;;;;;5034892;28;20663;-66
2022/08/28 09:26:36;;;;;;;5.80;3.85;;;25.20;99.90;;;;;;5035280;28;20183;-66
2022/08/28 09:29:06;;;;;;;5.45;3.70;;;25.70;99.90;;;;;;5034800;28;20204;-66
2022/08/28 09:31:42;;;;;;;3.78;3.35;;;26.20;99.90;;;;;;5018242;28;20550;-66
2022/08/28 09:34:28;;;;;;;9.68;4.10;;;26.00;99.90;;;;;;5030232;28;20641;-67
2022/08/28 09:36:56;;;;;;;8.98;3.85;;;25.90;99.90;;;;;;5035037;28;20186;-66
2022/08/28 09:39:30;;;;;;;8.32;4.07;;;25.80;99.90;;;;;;5034487;28;20661;-66
2022/08/28 09:45:19;;;;;;;5.82;3.67;;;26.00;99.90;;;;;;5034276;28;20214;-66
2022/08/28 09:47:56;;;;;;;6.32;3.28;;;26.70;99.90;;;;;;5009979;28;20202;-66
2022/08/28 09:50:31;;;;;;;6.15;3.80;;;27.10;99.90;;;;;;5034600;28;20183;-66
2022/08/28 09:53:10;;;;;;;6.20;4.63;;;27.50;99.90;;;;;;5034416;28;20187;-67
2022/08/28 09:56:02;;;;;;;4.43;3.97;;;27.40;99.90;;;;;;5034209;28;20198;-65
2022/08/28 09:58:50;;;;;;;7.32;6.47;;;27.30;99.90;;;;;;5034129;28;20269;-65
2022/08/28 10:01:48;;;;;;;4.75;3.63;;;27.50;99.90;;;;;;5034183;28;20203;-67
2022/08/28 10:04:45;;;;;;;5.68;3.90;;;27.90;99.90;;;;;;5034222;28;20669;-66
2022/08/28 10:07:14;;;;;;;7.65;4.05;;;28.20;99.90;;;;;;5034009;28;20191;-65
2022/08/28 10:09:53;;;;;;;3.83;3.53;;;28.10;99.90;;;;;;5034134;28;20265;-67
2022/08/28 10:12:28;;;;;;;6.13;3.67;;;28.00;99.90;;;;;;5033746;28;20180;-66
2022/08/28 10:14:59;;;;;;;3.85;3.45;;;28.10;99.90;;;;;;5033990;28;20176;-66
2022/08/28 10:17:56;;;;;;;8.15;3.42;;;28.00;99.90;;;;;;5033945;28;20207;-66
2022/08/28 10:20:42;;;;;;;5.35;3.55;;;27.60;99.90;;;;;;5033907;28;20254;-67
2022/08/28 10:23:17;;;;;;;5.03;4.10;;;27.50;99.90;;;;;;5016730;28;20219;-66
2022/08/28 10:26:23;;;;;;;5.93;2.92;;;27.50;99.90;;;;;;5033312;28;20198;-64
2022/08/28 10:29:01;;;;;;;6.25;3.33;;;27.60;99.90;;;;;;5000115;28;20633;-65
2022/08/28 10:31:44;;;;;;;5.75;3.13;;;27.30;99.90;;;;;;5033976;28;20175;-66
2022/08/28 10:34:16;;;;;;;3.70;3.40;;;27.30;99.90;;;;;;5033607;28;20183;-66
2022/08/28 10:36:48;;;;;;;5.20;3.70;;;27.40;99.90;;;;;;5024125;28;20192;-67
2022/08/28 10:39:31;;;;;;;4.75;3.65;;;27.50;99.90;;;;;;5033703;28;20613;-66
2022/08/28 10:42:00;;;;;;;5.30;4.30;;;27.40;99.90;;;;;;5033250;28;20194;-66
2022/08/28 10:44:33;;;;;;;5.57;3.38;;;27.50;99.90;;;;;;5033230;28;20338;-66
2022/08/28 10:47:01;;;;;;;5.60;3.90;;;27.70;99.90;;;;;;5033152;28;20271;-66
2022/08/28 10:49:48;;;;;;;6.22;3.92;;;27.70;99.90;;;;;;5033300;28;20195;-66
2022/08/28 10:52:25;;;;;;;3.70;3.47;;;27.60;99.90;;;;;;5033452;28;20743;-66
2022/08/28 10:55:01;;;;;;;5.38;4.13;;;27.70;99.90;;;;;;5032984;28;20180;-67
2022/08/28 10:57:49;;;;;;;4.50;4.10;;;27.70;99.90;;;;;;5032910;28;20183;-66
2022/08/28 11:00:22;;;;;;;4.85;3.58;;;27.50;99.90;;;;;;5033316;28;20218;-66
2022/08/28 11:03:10;;;;;;;5.18;3.60;;;27.50;99.90;;;;;;5032879;28;20690;-66
2022/08/28 11:05:46;;;;;;;3.88;3.50;;;27.50;99.90;;;;;;5032421;28;20187;-65
2022/08/28 11:08:29;;;;;;;6.47;3.63;;;27.30;99.90;;;;;;5021949;28;20186;-66
2022/08/28 11:10:57;;;;;;;4.47;4.07;;;27.50;99.90;;;;;;5032838;28;20172;-66
2022/08/28 11:13:59;;;;;;;4.72;3.80;;;27.60;99.90;;;;;;5032310;28;20643;-65
2022/08/28 11:16:28;;;;;;;4.97;3.67;;;27.90;99.90;;;;;;5033344;28;20195;-64
2022/08/28 11:19:16;;;;;;;3.22;2.88;;;27.90;99.90;;;;;;5032821;28;20203;-64
2022/08/28 11:22:01;;;;;;;6.15;3.63;;;28.10;99.90;;;;;;5032895;28;20230;-64
2022/08/28 11:24:42;;;;;;;4.32;3.30;;;28.30;99.90;;;;;;5032278;28;20739;-64
2022/08/28 11:27:22;;;;;;;3.55;2.85;;;28.70;99.90;;;;;;5032715;28;20172;-64
2022/08/28 11:30:06;;;;;;;7.97;3.35;;;29.00;99.90;;;;;;5031770;28;20258;-63
2022/08/28 11:32:32;;;;;;;4.88;3.47;;;28.90;99.90;;;;;;5032764;28;20583;-64
2022/08/28 11:34:59;;;;;;;4.18;3.33;;;28.60;99.90;;;;;;5032048;28;20184;-64
2022/08/28 11:37:45;;;;;;;4.35;3.63;;;28.60;99.90;;;;;;5032596;28;20681;-67
2022/08/28 11:40:18;;;;;;;5.10;3.42;;;28.70;99.90;;;;;;5019799;28;20211;-66
2022/08/28 11:42:47;;;;;;;4.88;3.30;;;28.70;99.90;;;;;;5012408;28;20184;-64
2022/08/28 11:46:10;;;;;;;7.55;3.55;;;28.90;99.90;;;;;;5030098;28;20171;-65
2022/08/28 11:48:36;;;;;;;3.63;3.33;;;28.70;99.90;;;;;;4932961;29;20216;-66
2022/08/28 11:51:17;;;;;;;6.15;3.45;;;28.90;99.90;;;;;;5008442;28;20207;-66
2022/08/28 11:54:07;;;;;;;4.43;3.97;;;29.10;99.90;;;;;;5012117;28;20271;-66
2022/08/28 11:57:10;;;;;;;7.57;4.43;;;29.00;99.90;;;;;;5015878;28;20172;-64
2022/08/28 11:59:53;;;;;;;6.32;4.30;;;29.20;99.90;;;;;;5032045;28;20191;-65
2022/08/28 12:02:37;;;;;;;6.88;4.03;;;29.80;99.90;;;;;;5032143;28;20183;-64
2022/08/28 12:05:09;;;;;;;3.67;3.38;;;30.20;99.90;;;;;;5031914;28;20194;-65
2022/08/28 12:07:38;;;;;;;4.25;3.45;;;30.60;98.90;;;;;;5031805;28;20234;-67
2022/08/28 12:10:33;;;;;;;3.58;3.28;;;30.60;98.40;;;;;;5031664;28;20530;-67
2022/08/28 12:13:01;;;;;;;5.95;3.42;;;30.60;99.60;;;;;;5007612;28;20669;-67
2022/08/28 12:15:26;;;;;;;5.68;3.28;;;31.00;98.10;;;;;;5031706;28;20171;-67
2022/08/28 12:18:04;;;;;;;4.43;3.33;;;30.80;98.70;;;;;;5031520;28;20179;-66
2022/08/28 12:20:35;;;;;;;3.40;2.65;;;30.70;98.50;;;;;;5032020;28;20206;-64
2022/08/28 12:23:33;;;;;;;6.63;3.30;;;30.80;97.10;;;;;;5031324;28;20199;-64
2022/08/28 12:26:08;;;;;;;3.35;3.03;;;30.50;95.50;;;;;;5031402;28;20174;-63
2022/08/28 12:28:58;;;;;;;8.07;2.83;;;30.20;96.10;;;;;;5031671;28;20187;-65
2022/08/28 12:34:44;;;;;;;3.72;2.80;;;31.00;96.60;;;;;;5031329;28;20229;-65
2022/08/28 12:37:34;;;;;;;4.72;3.50;;;31.50;94.90;;;;;;5031463;28;20261;-65
2022/08/28 12:40:21;;;;;;;5.05;3.20;;;31.10;94.10;;;;;;5031005;28;20246;-64
2022/08/28 12:42:52;;;;;;;3.95;3.25;;;30.50;94.70;;;;;;5025802;28;20184;-64
2022/08/28 12:45:38;;;;;;;5.85;2.90;;;30.50;94.30;;;;;;5026976;28;20180;-65
2022/08/28 12:48:20;;;;;;;5.57;3.47;;;30.50;94.40;;;;;;5018943;28;20707;-64
2022/08/28 12:50:46;;;;;;;7.45;3.58;;;30.40;94.70;;;;;;5030342;28;20237;-64
2022/08/28 12:53:15;;;;;;;3.38;2.88;;;30.50;94.10;;;;;;5031481;28;20274;-67
2022/08/28 12:55:42;;;;;;;3.97;2.85;;;31.10;95.30;;;;;;5030505;28;20241;-66
2022/08/28 12:58:14;;;;;;;6.05;3.00;;;31.10;93.60;;;;;;5031289;28;20194;-66
2022/08/28 13:00:53;;;;;;;3.97;3.42;;;30.70;93.50;;;;;;5031061;28;20175;-66
2022/08/28 13:03:19;;;;;;;5.68;3.38;;;30.70;93.30;;;;;;5031335;28;20206;-66
2022/08/28 13:05:45;;;;;;;2.97;2.72;;;30.90;93.30;;;;;;5030707;28;20183;-66
2022/08/28 13:08:11;;;;;;;3.50;2.92;;;31.10;92.80;;;;;;5031152;28;20167;-65
2022/08/28 13:10:47;;;;;;;5.75;3.15;;;30.90;93.10;;;;;;5030963;28;20688;-65
2022/08/28 13:13:35;;;;;;;4.82;3.22;;;30.80;91.80;;;;;;5031156;28;20542;-65
2022/08/28 13:16:04;;;;;;;3.05;2.85;;;30.80;91.10;;;;;;5030783;28;20184;-65